Terminal Aerodrome Forecast
Issued by NWS Wilmington, OH

Current Version | Previous Version | Graphics & Text | Print | Product List | Glossary On
Versions: 1 2 3 4 5 6 7 8 9 10 11 12 13 14 15 16 17 18 19 20 21 22 23
928
FTUS41 KILN 231721
TAFCVG
TAF
KCVG 231721Z 2318/2424 16006KT P6SM FEW045
     FM240000 14004KT P6SM SCT250
     FM240900 16004KT P6SM BKN060
     FM241400 19007KT P6SM SCT050 BKN100
     FM242000 20010KT P6SM VCTS BKN050CB=

USA.gov is the U.S. government's official web portal to all federal, state and local government web resources and services.